createdAt,value
2022-10-05T00:00:44.175Z,97880.28
2022-10-05T00:03:11.963Z,97886.38
2022-10-05T00:05:39.479Z,97883.06
2022-10-05T00:08:22.945Z,97880.50
2022-10-05T00:10:50.564Z,97875.28
2022-10-05T00:13:20.947Z,97872.84
2022-10-05T00:15:48.741Z,97867.03
2022-10-05T00:18:20.643Z,97864.38
2022-10-05T00:20:48.601Z,97879.84
2022-10-05T00:23:24.958Z,97869.63
2022-10-05T00:25:51.526Z,97871.50
2022-10-05T00:28:27.664Z,97871.56
2022-10-05T00:31:00.707Z,97870.84
2022-10-05T00:33:28.175Z,97874.34
2022-10-05T00:35:55.351Z,97866.41
2022-10-05T00:38:22.328Z,97860.03
2022-10-05T00:41:13.941Z,97860.47
2022-10-05T00:43:52.682Z,97858.81
2022-10-05T00:46:41.792Z,97863.19
2022-10-05T00:49:14.313Z,97854.59
2022-10-05T00:51:43.801Z,97843.56
2022-10-05T00:54:19.150Z,97847.88
2022-10-05T00:57:07.280Z,97839.91
2022-10-05T01:00:06.208Z,97837.38
2022-10-05T01:02:59.142Z,97826.34
2022-10-05T01:05:53.745Z,97821.75
2022-10-05T01:08:47.985Z,97825.84
2022-10-05T01:11:25.192Z,97823.22
2022-10-05T01:14:19.325Z,97820.91
2022-10-05T01:17:36.068Z,97825.34
2022-10-05T01:20:23.597Z,97819.25
2022-10-05T01:23:27.318Z,97810.81
2022-10-05T01:26:06.332Z,97810.88
2022-10-05T01:28:39.110Z,97797.13
2022-10-05T01:31:19.541Z,97798.91
2022-10-05T01:33:55.842Z,97797.97
2022-10-05T01:36:40.584Z,97790.50
2022-10-05T01:39:25.623Z,97795.84
2022-10-05T01:42:16.885Z,97792.38
2022-10-05T01:44:54.565Z,97795.16
2022-10-05T01:47:50.087Z,97795.00
2022-10-05T01:50:28.490Z,97777.94
2022-10-05T01:53:12.876Z,97789.19
2022-10-05T01:55:49.038Z,97784.59
2022-10-05T01:58:30.027Z,97783.19
2022-10-05T02:01:18.331Z,97781.31
2022-10-05T02:03:53.480Z,97777.88
2022-10-05T02:06:25.033Z,97773.44
2022-10-05T02:09:02.526Z,97773.50
2022-10-05T02:11:29.252Z,97766.22
2022-10-05T02:14:03.002Z,97759.81
2022-10-05T02:16:36.335Z,97762.31
2022-10-05T02:19:11.604Z,97753.56
2022-10-05T02:21:39.057Z,97758.94
2022-10-05T02:24:18.495Z,97762.47
2022-10-05T02:26:46.742Z,97756.75
2022-10-05T02:29:16.539Z,97757.31
2022-10-05T02:31:48.861Z,97757.16
2022-10-05T02:34:26.360Z,97751.91
2022-10-05T02:37:15.819Z,97752.97
2022-10-05T02:40:04.743Z,97770.22
2022-10-05T02:42:42.490Z,97755.38
2022-10-05T02:45:26.485Z,97761.31
2022-10-05T02:48:17.739Z,97765.44
2022-10-05T02:50:53.665Z,97773.41
2022-10-05T02:53:38.893Z,97766.22
2022-10-05T02:56:28.570Z,97766.38
2022-10-05T02:59:11.142Z,97770.75
2022-10-05T03:01:49.307Z,97776.22
2022-10-05T03:04:51.021Z,97771.69
2022-10-05T03:07:37.434Z,97768.28
2022-10-05T03:10:12.476Z,97766.56
2022-10-05T03:13:19.842Z,97776.41
2022-10-05T03:16:14.021Z,97770.25
2022-10-05T03:19:17.967Z,97765.88
2022-10-05T03:21:58.985Z,97765.63
2022-10-05T03:25:02.814Z,97765.63
2022-10-05T03:27:47.632Z,97758.75
2022-10-05T03:30:21.936Z,97751.84
2022-10-05T03:33:19.433Z,97752.09
2022-10-05T03:35:53.259Z,97750.03
2022-10-05T03:38:44.087Z,97753.53
2022-10-05T03:41:31.552Z,97757.97
2022-10-05T03:44:31.602Z,97757.19
2022-10-05T03:47:19.358Z,97759.94
2022-10-05T03:50:04.463Z,97759.56
2022-10-05T03:52:48.332Z,97761.91
2022-10-05T03:55:26.661Z,97765.22
2022-10-05T03:57:58.526Z,97768.03
2022-10-05T04:00:28.049Z,97757.28
2022-10-05T04:03:09.078Z,97769.50
2022-10-05T04:05:50.513Z,97765.75
2022-10-05T04:08:34.324Z,97766.13
2022-10-05T04:11:06.215Z,97779.22
2022-10-05T04:13:59.442Z,97773.34
2022-10-05T04:16:31.088Z,97764.75
2022-10-05T04:19:05.864Z,97761.22
2022-10-05T04:21:55.181Z,97771.44
2022-10-05T04:24:35.058Z,97758.81
2022-10-05T04:27:09.377Z,97758.63
2022-10-05T04:29:44.798Z,97755.41
2022-10-05T04:32:36.952Z,97767.03
2022-10-05T04:35:18.576Z,97760.66
2022-10-05T04:38:05.282Z,97760.53
2022-10-05T04:40:46.989Z,97760.78
2022-10-05T04:43:24.507Z,97752.34
2022-10-05T04:46:11.886Z,97757.66
2022-10-05T04:49:09.404Z,97755.66
2022-10-05T04:52:00.706Z,97765.06
2022-10-05T04:54:44.492Z,97761.72
2022-10-05T04:57:16.897Z,97765.91
2022-10-05T05:00:05.672Z,97765.31
2022-10-05T05:02:44.702Z,97778.75
2022-10-05T05:05:27.219Z,97780.41
2022-10-05T05:07:53.613Z,97784.06
2022-10-05T05:10:40.735Z,97775.38
2022-10-05T05:13:13.118Z,97780.44
2022-10-05T05:16:02.093Z,97783.72
2022-10-05T05:18:51.962Z,97788.31
2022-10-05T05:21:35.975Z,97801.06
2022-10-05T05:24:30.105Z,97803.53
2022-10-05T05:27:11.016Z,97805.56
2022-10-05T05:29:52.030Z,97816.69
2022-10-05T05:32:33.398Z,97821.69
2022-10-05T05:35:18.104Z,97810.00
2022-10-05T05:37:58.142Z,97804.06
2022-10-05T05:40:30.144Z,97814.00
2022-10-05T05:42:56.675Z,97816.50
2022-10-05T05:45:42.071Z,97808.50
2022-10-05T05:48:42.694Z,97820.31
2022-10-05T05:51:19.877Z,97824.28
2022-10-05T05:53:50.741Z,97826.47
2022-10-05T05:56:22.153Z,97825.91
2022-10-05T05:59:00.868Z,97819.56
2022-10-05T06:01:37.693Z,97834.63
2022-10-05T06:04:15.081Z,97828.75
2022-10-05T06:06:48.760Z,97830.09
2022-10-05T06:09:24.551Z,97830.97
2022-10-05T06:12:00.809Z,97835.88
2022-10-05T06:15:00.543Z,97836.13
2022-10-05T06:17:32.074Z,97832.06
2022-10-05T06:20:04.991Z,97831.34
2022-10-05T06:22:38.790Z,97834.41
2022-10-05T06:25:12.262Z,97830.47
2022-10-05T06:27:58.357Z,97822.88
2022-10-05T06:30:28.615Z,97827.72
2022-10-05T06:33:01.030Z,97832.84
2022-10-05T06:35:56.651Z,97829.50
2022-10-05T06:38:38.163Z,97823.50
2022-10-05T06:41:32.467Z,97823.28
2022-10-05T06:44:06.138Z,97819.44
2022-10-05T06:46:43.938Z,97813.00
2022-10-05T06:49:34.389Z,97811.56
2022-10-05T06:52:15.986Z,97811.31
2022-10-05T06:54:43.059Z,97799.03
2022-10-05T06:57:44.556Z,97811.38
2022-10-05T07:00:17.023Z,97811.38
2022-10-05T07:03:25.582Z,97809.91
2022-10-05T07:06:20.152Z,97801.09
2022-10-05T07:08:49.492Z,97801.34
2022-10-05T07:11:34.656Z,97806.69
2022-10-05T07:14:39.372Z,97801.19
2022-10-05T07:17:22.287Z,97788.50
2022-10-05T07:20:14.153Z,97792.25
2022-10-05T07:23:14.239Z,97787.63
2022-10-05T07:25:46.703Z,97785.72
2022-10-05T07:28:33.464Z,97784.44
2022-10-05T07:31:16.046Z,97780.22
2022-10-05T07:34:06.717Z,97784.38
2022-10-05T07:37:09.469Z,97778.97
2022-10-05T07:40:06.287Z,97778.13
2022-10-05T07:42:50.894Z,97783.31
2022-10-05T07:45:29.085Z,97774.44
2022-10-05T07:48:06.867Z,97786.75
2022-10-05T07:51:04.110Z,97779.84
2022-10-05T07:53:38.923Z,97779.06
2022-10-05T07:56:13.496Z,97768.03
2022-10-05T07:58:47.414Z,97774.78
2022-10-05T08:01:36.608Z,97768.72
2022-10-05T08:04:13.387Z,97766.59
2022-10-05T08:06:56.606Z,97768.59
2022-10-05T08:09:35.781Z,97776.25
2022-10-05T08:12:14.625Z,97768.53
2022-10-05T08:14:56.970Z,97765.00
2022-10-05T08:17:37.903Z,97764.63
2022-10-05T08:20:22.013Z,97763.00
2022-10-05T08:22:57.938Z,97762.66
2022-10-05T08:26:09.073Z,97762.44
2022-10-05T08:28:38.155Z,97759.13
2022-10-05T08:31:16.734Z,97759.38
2022-10-05T08:34:20.097Z,97760.75
2022-10-05T08:37:07.051Z,97762.25
2022-10-05T08:39:44.671Z,97751.56
2022-10-05T08:42:44.878Z,97756.47
2022-10-05T08:45:48.666Z,97756.72
2022-10-05T08:48:24.267Z,97757.78
2022-10-05T08:51:31.803Z,97760.72
2022-10-05T08:54:16.678Z,97773.06
2022-10-05T08:56:46.180Z,97772.47
2022-10-05T09:00:02.852Z,97774.53
2022-10-05T09:03:11.545Z,97785.03
2022-10-05T09:05:37.880Z,97775.72
2022-10-05T09:08:10.258Z,97782.81
2022-10-05T09:11:18.191Z,97777.69
2022-10-05T09:14:02.952Z,97787.00
2022-10-05T09:16:49.462Z,97782.47
2022-10-05T09:19:53.145Z,97780.63
2022-10-05T09:22:38.345Z,97782.72
2022-10-05T09:25:46.017Z,97776.25
2022-10-05T09:28:22.953Z,97780.47
2022-10-05T09:30:56.562Z,97787.28
2022-10-05T09:33:53.948Z,97778.50
2022-10-05T09:36:47.911Z,97772.47
2022-10-05T09:39:35.623Z,97779.06
2022-10-05T09:42:26.849Z,97781.66
2022-10-05T09:45:09.909Z,97779.34
2022-10-05T09:48:11.539Z,97771.59
2022-10-05T09:50:37.972Z,97777.97
2022-10-05T09:53:10.096Z,97782.13
2022-10-05T09:55:55.071Z,97772.41
2022-10-05T09:58:57.645Z,97773.59
2022-10-05T10:01:44.638Z,97768.75
2022-10-05T10:04:26.687Z,97771.56
2022-10-05T10:07:11.942Z,97758.44
2022-10-05T10:09:49.243Z,97751.59
2022-10-05T10:12:24.438Z,97757.19
2022-10-05T10:15:01.926Z,97758.69
2022-10-05T10:18:06.238Z,97752.22
2022-10-05T10:20:56.185Z,97758.31
2022-10-05T10:23:27.300Z,97741.53
2022-10-05T10:26:05.927Z,97750.19
2022-10-05T10:28:46.906Z,97753.09
2022-10-05T10:31:28.621Z,97738.03
2022-10-05T10:34:16.351Z,97744.38
2022-10-05T10:37:07.188Z,97744.84
2022-10-05T10:39:45.154Z,97746.88
2022-10-05T10:43:03.805Z,97747.81
2022-10-05T10:45:57.551Z,97747.13
2022-10-05T10:48:46.200Z,97750.28
2022-10-05T10:51:22.002Z,97746.34
2022-10-05T10:53:56.054Z,97754.09
2022-10-05T10:56:50.907Z,97742.38
2022-10-05T10:59:42.371Z,97741.50
2022-10-05T11:02:43.059Z,97749.84
2022-10-05T11:05:28.815Z,97735.28
2022-10-05T11:08:16.858Z,97738.28
2022-10-05T11:11:22.130Z,97736.47
2022-10-05T11:14:21.037Z,97738.00
2022-10-05T11:17:05.767Z,97733.00
2022-10-05T11:20:10.524Z,97729.53
2022-10-05T11:22:50.396Z,97726.81
2022-10-05T11:25:35.150Z,97725.00
2022-10-05T11:28:28.622Z,97720.06
2022-10-05T11:31:25.558Z,97723.63
2022-10-05T11:34:20.617Z,97713.84
2022-10-05T11:36:53.830Z,97707.06
2022-10-05T11:39:36.935Z,97713.13
2022-10-05T11:42:51.244Z,97699.09
2022-10-05T11:45:21.778Z,97695.47
2022-10-05T11:48:10.629Z,97683.00
2022-10-05T11:50:57.209Z,97677.53
2022-10-05T11:53:26.690Z,97682.72
2022-10-05T11:56:12.642Z,97669.16
2022-10-05T11:58:47.198Z,97659.34
2022-10-05T12:01:30.847Z,97669.97
2022-10-05T12:04:25.795Z,97662.66
2022-10-05T12:07:02.869Z,97651.69
2022-10-05T12:10:05.451Z,97642.19
2022-10-05T12:12:45.246Z,97639.75
2022-10-05T12:15:23.933Z,97641.69
2022-10-05T12:18:13.683Z,97643.53
2022-10-05T12:21:14.805Z,97642.09
2022-10-05T12:23:54.782Z,97645.31
2022-10-05T12:26:37.969Z,97640.94
2022-10-05T12:29:33.425Z,97634.56
2022-10-05T12:32:13.394Z,97633.06
2022-10-05T12:35:03.287Z,97636.44
2022-10-05T12:37:46.547Z,97630.63
2022-10-05T12:40:19.013Z,97636.31
2022-10-05T12:42:57.852Z,97635.66
2022-10-05T12:45:47.425Z,97631.38
2022-10-05T12:48:22.892Z,97631.63
2022-10-05T12:51:04.143Z,97630.63
2022-10-05T12:53:48.394Z,97637.25
2022-10-05T12:56:23.680Z,97627.84
2022-10-05T12:59:19.272Z,97629.91
2022-10-05T13:02:05.812Z,97626.19
2022-10-05T13:04:49.412Z,97624.75
2022-10-05T13:07:41.162Z,97624.91
2022-10-05T13:10:24.685Z,97620.13
2022-10-05T13:13:06.162Z,97620.00
2022-10-05T13:16:05.503Z,97619.25
2022-10-05T13:18:44.330Z,97626.25
2022-10-05T13:21:45.841Z,97618.16
2022-10-05T13:24:22.170Z,97619.00
2022-10-05T13:26:55.062Z,97619.59
2022-10-05T13:29:29.202Z,97618.44
2022-10-05T13:32:00.443Z,97614.88
2022-10-05T13:34:40.179Z,97610.25
2022-10-05T13:37:17.409Z,97605.59
2022-10-05T13:40:00.865Z,97610.00
2022-10-05T13:42:42.595Z,97616.50
2022-10-05T13:45:27.244Z,97605.19
2022-10-05T13:48:11.324Z,97605.81
2022-10-05T13:51:07.558Z,97602.59
2022-10-05T13:53:41.923Z,97610.97
2022-10-05T13:56:36.195Z,97602.31
2022-10-05T13:59:11.914Z,97615.78
2022-10-05T14:01:49.203Z,97612.84
2022-10-05T14:04:21.402Z,97610.88
2022-10-05T14:06:49.304Z,97614.06
2022-10-05T14:09:22.145Z,97612.56
2022-10-05T14:12:11.877Z,97608.66
2022-10-05T14:14:57.277Z,97607.59
2022-10-05T14:17:29.240Z,97612.84
2022-10-05T14:20:00.951Z,97609.47
2022-10-05T14:22:27.878Z,97621.72
2022-10-05T14:25:02.899Z,97613.84
2022-10-05T14:27:34.901Z,97614.66
2022-10-05T14:30:18.559Z,97615.13
2022-10-05T14:33:04.879Z,97608.41
2022-10-05T14:35:49.111Z,97615.47
2022-10-05T14:38:29.410Z,97617.19
2022-10-05T14:41:17.380Z,97620.69
2022-10-05T14:44:13.419Z,97621.78
2022-10-05T14:46:53.012Z,97613.34
2022-10-05T14:49:25.733Z,97615.66
2022-10-05T14:51:53.873Z,97614.13
2022-10-05T14:54:42.277Z,97617.34
2022-10-05T14:57:18.110Z,97615.31
2022-10-05T15:00:04.125Z,97612.09
2022-10-05T15:03:01.273Z,97615.66
2022-10-05T15:05:52.384Z,97606.38
2022-10-05T15:08:41.466Z,97616.63
2022-10-05T15:11:16.675Z,97609.84
2022-10-05T15:13:48.566Z,97610.75
2022-10-05T15:16:19.791Z,97612.31
2022-10-05T15:19:13.813Z,97609.50
2022-10-05T15:21:51.373Z,97608.50
2022-10-05T15:24:22.190Z,97595.81
2022-10-05T15:26:58.250Z,97603.38
2022-10-05T15:30:09.704Z,97597.41
2022-10-05T15:32:44.271Z,97603.66
2022-10-05T15:35:20.288Z,97602.50
2022-10-05T15:37:54.891Z,97602.50
2022-10-05T15:40:59.522Z,97600.53
2022-10-05T15:43:58.838Z,97597.19
2022-10-05T15:46:56.754Z,97603.22
2022-10-05T15:49:44.667Z,97602.00
2022-10-05T15:52:29.885Z,97602.44
2022-10-05T15:55:25.416Z,97600.88
2022-10-05T15:57:57.540Z,97610.28
2022-10-05T16:00:26.360Z,97611.25
2022-10-05T16:03:11.914Z,97609.31
2022-10-05T16:05:56.913Z,97609.50
2022-10-05T16:09:00.333Z,97615.34
2022-10-05T16:11:47.697Z,97616.38
2022-10-05T16:14:33.357Z,97608.47
2022-10-05T16:17:15.622Z,97611.41
2022-10-05T16:20:17.726Z,97614.75
2022-10-05T16:23:21.434Z,97615.81
2022-10-05T16:25:53.970Z,97614.94
2022-10-05T16:28:35.930Z,97622.28
2022-10-05T16:31:11.413Z,97629.69
2022-10-05T16:34:06.532Z,97618.88
2022-10-05T16:36:44.455Z,97630.69
2022-10-05T16:39:41.479Z,97627.56
2022-10-05T16:42:26.636Z,97629.28
2022-10-05T16:45:06.863Z,97632.88
2022-10-05T16:48:15.167Z,97630.09
2022-10-05T16:51:20.065Z,97624.56
2022-10-05T16:53:59.645Z,97631.06
2022-10-05T16:56:37.556Z,97631.97
2022-10-05T16:59:33.118Z,97637.59
2022-10-05T17:02:00.714Z,97640.44
2022-10-05T17:04:57.972Z,97630.63
2022-10-05T17:07:34.687Z,97637.91
2022-10-05T17:10:30.597Z,97640.28
2022-10-05T17:13:14.160Z,97643.38
2022-10-05T17:16:22.948Z,97645.97
2022-10-05T17:19:34.255Z,97646.50
2022-10-05T17:22:12.610Z,97647.66
2022-10-05T17:25:04.735Z,97643.50
2022-10-05T17:27:55.402Z,97646.09
2022-10-05T17:30:38.300Z,97653.38
2022-10-05T17:33:28.896Z,97648.22
2022-10-05T17:36:12.872Z,97653.94
2022-10-05T17:38:48.704Z,97654.06
2022-10-05T17:41:23.454Z,97653.88
2022-10-05T17:44:20.989Z,97655.44
2022-10-05T17:47:00.681Z,97653.84
2022-10-05T17:50:15.330Z,97655.03
2022-10-05T17:53:02.686Z,97659.97
2022-10-05T17:55:55.530Z,97654.88
2022-10-05T17:58:28.515Z,97663.88
2022-10-05T18:00:58.302Z,97670.41
2022-10-05T18:03:43.434Z,97664.28
2022-10-05T18:06:29.578Z,97667.44
2022-10-05T18:09:16.956Z,97670.41
2022-10-05T18:11:45.133Z,97668.69
2022-10-05T18:14:24.609Z,97665.22
2022-10-05T18:17:35.729Z,97673.22
2022-10-05T18:20:18.244Z,97672.59
2022-10-05T18:22:47.171Z,97672.75
2022-10-05T18:25:29.449Z,97678.44
2022-10-05T18:28:02.447Z,97680.75
2022-10-05T18:30:38.721Z,97682.84
2022-10-05T18:33:17.360Z,97683.44
2022-10-05T18:35:46.905Z,97688.34
2022-10-05T18:38:31.316Z,97690.13
2022-10-05T18:41:21.270Z,97694.84
2022-10-05T18:43:59.903Z,97693.06
2022-10-05T18:47:02.302Z,97698.75
2022-10-05T18:49:44.077Z,97698.38
2022-10-05T18:52:51.881Z,97700.25
2022-10-05T18:55:32.800Z,97698.19
2022-10-05T18:58:26.030Z,97700.19
2022-10-05T19:01:43.783Z,97703.69
2022-10-05T19:04:24.557Z,97714.50
2022-10-05T19:07:20.589Z,97710.72
2022-10-05T19:09:58.536Z,97716.78
2022-10-05T19:12:41.639Z,97710.09
2022-10-05T19:15:30.567Z,97711.41
2022-10-05T19:18:06.127Z,97719.63
2022-10-05T19:20:46.965Z,97720.50
2022-10-05T19:23:28.880Z,97717.97
2022-10-05T19:26:08.850Z,97725.25
2022-10-05T19:28:42.703Z,97734.41
2022-10-05T19:31:12.246Z,97738.03
2022-10-05T19:33:52.962Z,97737.72
2022-10-05T19:36:47.081Z,97739.41
2022-10-05T19:39:37.200Z,97753.25
2022-10-05T19:42:04.270Z,97752.09
2022-10-05T19:44:39.082Z,97762.44
2022-10-05T19:47:48.785Z,97763.16
2022-10-05T19:50:28.555Z,97772.34
2022-10-05T19:53:13.978Z,97773.66
2022-10-05T19:55:43.709Z,97777.31
2022-10-05T19:58:39.614Z,97782.69
2022-10-05T20:01:06.914Z,97782.94
2022-10-05T20:03:37.284Z,97784.13
2022-10-05T20:06:08.992Z,97795.50
2022-10-05T20:08:43.969Z,97795.19
2022-10-05T20:11:15.950Z,97797.94
2022-10-05T20:13:47.031Z,97808.47
2022-10-05T20:16:34.930Z,97806.84
2022-10-05T20:19:22.601Z,97804.34
2022-10-05T20:21:59.688Z,97816.34
2022-10-05T20:24:28.552Z,97821.44
2022-10-05T20:27:09.504Z,97823.22
2022-10-05T20:29:44.497Z,97829.75
2022-10-05T20:32:13.246Z,97830.66
2022-10-05T20:34:42.066Z,97832.56
2022-10-05T20:37:11.437Z,97837.03
2022-10-05T20:39:38.901Z,97834.66
2022-10-05T20:42:05.934Z,97829.31
2022-10-05T20:44:32.441Z,97842.09
2022-10-05T20:47:01.222Z,97848.47
2022-10-05T20:49:32.146Z,97847.56
2022-10-05T20:51:58.858Z,97859.41
2022-10-05T20:54:26.545Z,97861.53
2022-10-05T20:56:55.796Z,97860.25
2022-10-05T20:59:23.481Z,97874.53
2022-10-05T21:01:50.253Z,97873.78
2022-10-05T21:04:24.207Z,97871.38
2022-10-05T21:06:51.015Z,97874.44
2022-10-05T21:09:21.310Z,97871.03
2022-10-05T21:11:50.089Z,97879.94
2022-10-05T21:14:17.230Z,97874.13
2022-10-05T21:16:45.785Z,97870.59
2022-10-05T21:19:14.097Z,97875.94
2022-10-05T21:21:42.639Z,97874.44
2022-10-05T21:24:10.063Z,97873.88
2022-10-05T21:26:37.500Z,97874.75
2022-10-05T21:29:08.957Z,97875.81
2022-10-05T21:31:37.756Z,97872.50
2022-10-05T21:34:04.977Z,97882.47
2022-10-05T21:36:32.521Z,97877.91
2022-10-05T21:38:59.069Z,97888.69
2022-10-05T21:41:25.574Z,97892.09
2022-10-05T21:43:52.043Z,97887.84
2022-10-05T21:46:21.919Z,97900.28
2022-10-05T21:48:49.602Z,97904.16
2022-10-05T21:51:18.905Z,97905.13
2022-10-05T21:53:53.913Z,97911.94
2022-10-05T21:56:23.355Z,97907.84
2022-10-05T21:58:51.423Z,97919.09
2022-10-05T22:01:22.370Z,97911.84
2022-10-05T22:03:49.595Z,97910.91
2022-10-05T22:06:16.165Z,97919.00
2022-10-05T22:08:42.758Z,97915.72
2022-10-05T22:11:15.498Z,97924.16
2022-10-05T22:13:50.720Z,97918.44
2022-10-05T22:16:19.979Z,97910.28
2022-10-05T22:18:47.831Z,97914.81
2022-10-05T22:21:14.714Z,97924.03
2022-10-05T22:23:43.281Z,97915.41
2022-10-05T22:26:12.503Z,97914.41
2022-10-05T22:28:40.256Z,97922.41
2022-10-05T22:31:09.515Z,97922.56
2022-10-05T22:33:37.208Z,97921.28
2022-10-05T22:36:05.448Z,97923.91
2022-10-05T22:38:32.382Z,97931.38
2022-10-05T22:40:58.958Z,97924.13
2022-10-05T22:43:28.947Z,97930.72
2022-10-05T22:45:56.097Z,97928.94
2022-10-05T22:48:22.650Z,97939.56
2022-10-05T22:50:49.380Z,97939.50
2022-10-05T22:53:16.052Z,97933.13
2022-10-05T22:55:42.654Z,97941.63
2022-10-05T22:58:09.174Z,97953.03
2022-10-05T23:00:57.169Z,97941.63
2022-10-05T23:03:22.168Z,97947.28
2022-10-05T23:05:56.247Z,97954.28
2022-10-05T23:08:22.810Z,97954.56
2022-10-05T23:10:49.254Z,97959.59
2022-10-05T23:13:15.740Z,97961.16
2022-10-05T23:15:42.484Z,97960.81
2022-10-05T23:18:08.962Z,97962.56
2022-10-05T23:20:35.518Z,97963.44
2022-10-05T23:23:02.018Z,97973.19
2022-10-05T23:25:28.546Z,97968.84
2022-10-05T23:27:55.059Z,97967.94
2022-10-05T23:30:21.602Z,97971.94
2022-10-05T23:32:48.256Z,97970.97
2022-10-05T23:35:14.911Z,97972.53
2022-10-05T23:37:45.396Z,97977.91
2022-10-05T23:40:13.814Z,97989.47
2022-10-05T23:42:41.107Z,97984.47
2022-10-05T23:45:11.654Z,97985.38
2022-10-05T23:47:39.549Z,97983.75
2022-10-05T23:50:07.839Z,97995.13
2022-10-05T23:52:35.221Z,97990.75
2022-10-05T23:55:05.809Z,97999.94
2022-10-05T23:57:32.685Z,97996.03
